METAR Data
IDs: Format: Raw Decoded Include TAF

Data at: 0341 UTC 21 Sep 2018

KAST 210255Z AUTO 18003KT 10SM OVC060 15/14 A3011 RMK AO2 SLP195 T01500139 56004
KAST 210155Z AUTO 24005KT 10SM OVC060 16/14 A3012 RMK AO2 SLP199 T01560139
KAST 210055Z AUTO 23006KT 10SM OVC060 16/13 A3011 RMK AO2 SLP196 T01610128
KAST 202355Z AUTO 25008KT 10SM OVC055 18/12 A3012 RMK AO2 SLP200 T01780117 10189 20161 56003
KAST 202255Z AUTO 23010KT 10SM OVC060 18/12 A3012 RMK AO2 SLP200 T01780122
KAST 202155Z AUTO 23010KT 10SM BKN060 18/12 A3012 RMK AO2 SLP201 T01780122
KAST 202055Z AUTO 25010KT 10SM BKN065 18/12 A3013 RMK AO2 SLP203 T01780117 56010
KAST 201955Z AUTO 22006KT 10SM BKN070 18/11 A3014 RMK AO2 SLP205 T01780111
KAST 201931Z AUTO 23007KT 10SM FEW023 SCT028 OVC070 18/13 A3014 RMK AO2 T01830128
KAST 201855Z AUTO 03005KT 10SM BKN025 BKN034 17/13 A3015 RMK AO2 SLP209 T01670128
KAST 201824Z AUTO VRB05KT 10SM BKN022 BKN037 18/13 A3016 RMK AO2 T01830133
KAST 201755Z AUTO 22004KT 10SM CLR 17/13 A3016 RMK AO2 CIG 019 RWY 08 SLP212 T01720128 10172 20089 58001
KAST 201655Z AUTO 00000KT 10SM CLR 16/13 A3016 RMK AO2 SLP214 T01610133
KAST 201555Z AUTO 11003KT 10SM CLR 13/12 A3016 RMK AO2 SLP214 T01280122
KAST 201455Z AUTO 14004KT 10SM OVC047 10/10 A3016 RMK AO2 SLP213 T01000100 53009
KAST 201355Z AUTO 13003KT 10SM BKN070 09/09 A3015 RMK AO2 SLP209 T00940094
KAST 201255Z AUTO 00000KT 10SM FEW023 OVC070 09/09 A3014 RMK AO2 SLP207 T00940094
KAST 201155Z AUTO 14003KT 9SM FEW028 SCT070 09/09 A3013 RMK AO2 SLP204 60001 70004 T00890089 10111 20083 53002
KAST 201055Z AUTO 14003KT 10SM SCT018 09/09 A3013 RMK AO2 RAE0957 SLP202 P0000 T00940094
KAST 201034Z AUTO 12003KT 10SM BKN017 BKN029 10/10 A3013 RMK AO2 RAE0957 P0000 T01000100
KAST 200955Z AUTO 15004KT 10SM -RA SCT012 BKN048 OVC055 10/10 A3012 RMK AO2 RAB30 SLP201 P0001 T01000100
KAST 200855Z AUTO 14003KT 10SM FEW017 SCT055 09/09 A3013 RMK AO2 VIS 3/4 RWY 08 SLP202 T00940094 56001
KAST 200755Z AUTO 12003KT 10SM FEW011 09/09 A3013 RMK AO2 VIS 1/2 RWY 08 SLP202 T00940094 401780056
KAST 200655Z AUTO 00000KT 5SM BR FEW017 10/10 A3013 RMK AO2 VIS 3/4 RWY 08 SLP202 T01000100
KAST 200631Z AUTO 13003KT 9SM FEW008 11/10 A3013 RMK AO2 VIS 1/2 RWY 08 T01060100
KAST 200555Z AUTO 12003KT 10SM CLR 11/11 A3013 RMK AO2 VIS 3/4 RWY 08 SLP203 T01060106 10150 20106 50002
KAST 200455Z AUTO 17004KT 10SM CLR 12/12 A3013 RMK AO2 SLP204 T01170117
KAST 200355Z AUTO 21003KT 10SM CLR 13/13 A3013 RMK AO2 SLP203 T01280128
KAST 200255Z AUTO 24004KT 10SM CLR 13/12 A3012 RMK AO2 SLP200 T01330122 53004
KAST 200225Z AUTO 24004KT 10SM FEW016 SCT024 BKN080 13/13 A3012 RMK AO2 T01330128
KAST 200155Z AUTO VRB04KT 10SM SCT014 BKN024 OVC080 14/13 A3012 RMK AO2 SLP198 T01440133
KAST 200127Z AUTO 23004KT 10SM BKN015 OVC023 14/13 A3012 RMK AO2 T01440133
KAST 200055Z AUTO 20006KT 10SM BKN011 BKN016 OVC038 14/13 A3011 RMK AO2 SLP196 T01440128
KAST 200024Z AUTO 22004KT 10SM BKN019 BKN029 OVC065 14/13 A3011 RMK AO2 T01440128
KAST 192355Z AUTO 23006KT 10SM FEW016 BKN032 OVC060 14/13 A3011 RMK AO2 RAE23 SLP196 P0002 60003 T01440128 10178 20139 55001
KAST 192351Z AUTO 22005KT 10SM FEW011 SCT016 OVC031 14/13 A3011 RMK AO2 RAE23 P0002
KAST 192332Z AUTO 22007KT 10SM SCT006 OVC014 14/14 A3011 RMK AO2 RAE23 P0000 T01440139
KAST 192313Z AUTO 26006KT 4SM -RA BR BKN006 OVC015 14/14 A3012 RMK AO2 P0000 T01440139
KAST 192306Z AUTO 26004KT 2 1/2SM -RA BR BKN007 BKN012 OVC019 14/14 A3012 RMK AO2 P0000 T01390139
KAST 192255Z AUTO 26007KT 5SM -RA BR FEW007 BKN013 OVC026 14/13 A3012 RMK AO2 VIS 2 1/2 RWY 08 RAB54 SLP198 P0000 T01440133
KAST 192252Z AUTO 24006KT 7SM BKN013 BKN019 OVC026 14/13 A3012 RMK AO2
KAST 192155Z AUTO 25006KT 10SM FEW008 FEW014 OVC028 14/13 A3012 RMK AO2 RAB2057E48 SLP200 P0001 T01440133
KAST 192146Z AUTO 24005KT 7SM -RA FEW009 OVC028 14/13 A3012 RMK AO2 RAB2057 P0001 T01440133
KAST 192124Z AUTO 24009KT 5SM -RA BR FEW009 BKN034 OVC048 14/13 A3012 RMK AO2 RAB2057 P0000 T01390133
KAST 192055Z AUTO 25011KT 10SM OVC042 15/11 A3012 RMK AO2 SLP200 T01500111 55000
KAST 191955Z AUTO 24006KT 10SM FEW025 BKN049 OVC070 17/12 A3011 RMK AO2 CIG 023 RWY 08 SLP196 T01670117
KAST 191916Z AUTO 27008KT 10SM SCT022 BKN090 16/11 A3012 RMK AO2 T01610111
KAST 191855Z AUTO VRB05KT 10SM BKN022 17/11 A3012 RMK AO2 SLP198 T01720111
KAST 191755Z AUTO 00000KT 10SM FEW016 SCT022 16/12 A3012 RMK AO2 SLP200 T01560117 10156 20056 53001
KAST 191746Z AUTO 29003KT 10SM BKN017 BKN025 14/11 A3013 RMK AO2 T01440111
KAST 191655Z AUTO 00000KT 10SM CLR 14/12 A3012 RMK AO2 SLP199 T01440117
KAST 191634Z AUTO 00000KT 10SM SCT015 13/11 A3012 RMK AO2 T01280111
KAST 191555Z AUTO 14003KT 10SM OVC015 11/10 A3012 RMK AO2 SLP199 T01060100
KAST 191551Z AUTO 13003KT 10SM OVC015 10/09 A3012 RMK AO2